Romeroville, New Mexico
Current Conditions -  °F | °C
As of 5:53 AM on Friday 19 Dec 2014 (Local Time) from KLVS Reporting Station
Clear Clear  
Wind Chill: 17°   Ceiling: Unl
Heat Index: 24°   Visibility: 10mi
Dew Point: 15°   Wind: 6mph
Humidity: 69%   Direction: 340°NNW
Pressure: 30.08"   Gusts: NA
Location:  35.5292°N, 104.927°W
Report Text: KLVS 191253Z AUTO 34005KT 10SM CLR M04/M09 A3008 RMK AO2 SLP189 T10441094
Loading
Personal Weather Stations






























Interactive Weather Map New forecast layout! Learn more

10-Day Weather Forecast

Advertisements
Track Severe Weather on mobile